createdAt,value
2023-05-13T03:59:07.365Z,20.05
2023-05-13T04:00:07.465Z,20.06
2023-05-13T04:01:07.606Z,20.06
2023-05-13T04:02:07.718Z,20.06
2023-05-13T04:03:07.850Z,20.09
2023-05-13T04:04:07.948Z,20.12
2023-05-13T04:05:08.129Z,20.15
2023-05-13T04:06:08.195Z,20.15
2023-05-13T04:07:08.309Z,20.20
2023-05-13T04:08:08.489Z,20.23
2023-05-13T04:09:08.589Z,20.25
2023-05-13T04:10:08.730Z,20.27
2023-05-13T04:11:09.803Z,20.28
2023-05-13T04:12:08.919Z,20.31
2023-05-13T04:13:09.052Z,20.33
2023-05-13T04:14:09.178Z,20.35
2023-05-13T04:15:09.326Z,20.38
2023-05-13T04:16:09.451Z,20.39
2023-05-13T04:17:09.665Z,20.39
2023-05-13T04:18:09.682Z,20.41
2023-05-13T04:19:09.910Z,20.42
2023-05-13T04:20:09.960Z,20.42
2023-05-13T04:21:10.135Z,20.46
2023-05-13T04:22:10.210Z,20.43
2023-05-13T04:23:10.318Z,20.46
2023-05-13T04:24:10.456Z,20.47
2023-05-13T04:25:10.608Z,20.47
2023-05-13T04:26:10.730Z,20.49
2023-05-13T04:27:10.875Z,20.49
2023-05-13T04:28:11.001Z,20.50
2023-05-13T04:29:11.116Z,20.50
2023-05-13T04:30:11.252Z,20.53
2023-05-13T04:31:11.372Z,20.50
2023-05-13T04:32:11.541Z,20.51
2023-05-13T04:33:11.788Z,20.51
2023-05-13T04:34:11.806Z,20.51
2023-05-13T04:35:11.934Z,20.51
2023-05-13T04:36:14.871Z,20.53
2023-05-13T04:37:12.154Z,20.51
2023-05-13T04:38:12.283Z,20.54
2023-05-13T04:39:12.394Z,20.54
2023-05-13T04:40:12.550Z,20.54
2023-05-13T04:41:12.625Z,20.56
2023-05-13T04:42:12.777Z,20.56
2023-05-13T04:43:12.934Z,20.56
2023-05-13T04:44:13.092Z,20.56
2023-05-13T04:45:14.129Z,20.56
2023-05-13T04:46:13.414Z,20.54
2023-05-13T04:47:13.410Z,20.56
2023-05-13T04:48:14.535Z,20.56
2023-05-13T04:49:13.732Z,20.56
2023-05-13T04:50:13.816Z,20.59
2023-05-13T04:51:13.960Z,20.56
2023-05-13T04:52:14.071Z,20.59
2023-05-13T04:53:14.202Z,20.58
2023-05-13T04:54:14.337Z,20.59
2023-05-13T04:55:14.453Z,20.59
2023-05-13T04:56:14.570Z,20.59
2023-05-13T04:57:14.705Z,20.59
2023-05-13T04:58:15.819Z,20.61
2023-05-13T04:59:14.987Z,20.59
2023-05-13T05:00:15.150Z,20.61
2023-05-13T05:01:15.308Z,20.62
2023-05-13T05:02:15.428Z,20.62
2023-05-13T05:03:16.523Z,20.62
2023-05-13T05:04:15.746Z,20.62
2023-05-13T05:05:18.198Z,20.64
2023-05-13T05:06:16.009Z,20.64
2023-05-13T05:07:16.075Z,20.65
2023-05-13T05:08:16.248Z,20.65
2023-05-13T05:09:16.326Z,20.65
2023-05-13T05:10:16.483Z,20.65
2023-05-13T05:11:16.597Z,20.66
2023-05-13T05:12:16.716Z,20.66
2023-05-13T05:13:16.833Z,20.65
2023-05-13T05:14:16.963Z,20.69
2023-05-13T05:15:17.067Z,20.68
2023-05-13T05:16:17.194Z,20.66
2023-05-13T05:17:17.394Z,20.66
2023-05-13T05:18:17.534Z,20.66
2023-05-13T05:19:17.703Z,20.68
2023-05-13T05:20:18.802Z,20.66
2023-05-13T05:21:17.886Z,20.68
2023-05-13T05:22:18.021Z,20.69
2023-05-13T05:23:18.137Z,20.69
2023-05-13T05:24:18.264Z,20.68
2023-05-13T05:25:18.413Z,20.68
2023-05-13T05:26:18.529Z,20.68
2023-05-13T05:27:18.653Z,20.69
2023-05-13T05:28:18.772Z,20.68
2023-05-13T05:29:18.887Z,20.69
2023-05-13T05:30:19.183Z,20.69
2023-05-13T05:31:19.195Z,20.71
2023-05-13T05:32:19.362Z,20.69
2023-05-13T05:33:19.406Z,20.72
2023-05-13T05:34:19.528Z,20.72
2023-05-13T05:36:37.423Z,20.72
2023-05-13T05:37:35.276Z,20.72
2023-05-13T05:38:35.410Z,20.76
2023-05-13T05:39:35.589Z,20.77
2023-05-13T05:40:35.680Z,20.77
2023-05-13T05:41:35.811Z,20.79
2023-05-13T05:42:36.002Z,20.80
2023-05-13T05:43:36.044Z,20.83
2023-05-13T05:44:36.196Z,20.83
2023-05-13T05:45:36.335Z,20.84
2023-05-13T05:46:36.454Z,20.86
2023-05-13T05:47:36.624Z,20.87
2023-05-13T05:48:36.772Z,20.87
2023-05-13T05:49:36.897Z,20.89
2023-05-13T05:50:37.034Z,20.90
2023-05-13T05:51:37.180Z,20.90
2023-05-13T05:52:37.307Z,20.91
2023-05-13T05:53:37.432Z,20.91
2023-05-13T05:54:37.618Z,20.93
2023-05-13T05:55:37.697Z,20.93
2023-05-13T05:56:37.845Z,20.96
2023-05-13T05:57:37.971Z,20.96
2023-05-13T05:58:38.111Z,20.98
2023-05-13T05:59:38.255Z,20.99
2023-05-13T06:00:38.395Z,21.01
2023-05-13T06:01:38.485Z,21.02
2023-05-13T06:02:38.778Z,21.02
2023-05-13T06:03:38.910Z,21.04
2023-05-13T06:04:38.942Z,21.04
2023-05-13T06:05:38.973Z,21.05
2023-05-13T06:06:39.143Z,21.08
2023-05-13T06:07:39.202Z,21.06
2023-05-13T06:08:39.391Z,21.08
2023-05-13T06:09:39.501Z,21.08
2023-05-13T06:10:39.787Z,21.09
2023-05-13T06:11:39.730Z,21.13
2023-05-13T06:12:39.835Z,21.13
2023-05-13T06:13:39.961Z,21.14
2023-05-13T06:14:40.092Z,21.14
2023-05-13T06:15:40.260Z,21.17
2023-05-13T06:16:40.364Z,21.17
2023-05-13T06:17:40.533Z,21.16
2023-05-13T06:18:40.712Z,21.19
2023-05-13T06:19:40.777Z,21.20
2023-05-13T06:20:40.924Z,21.21
2023-05-13T06:21:41.374Z,21.21
2023-05-13T06:22:41.180Z,21.21
2023-05-13T06:23:41.296Z,21.24
2023-05-13T06:24:41.418Z,21.24
2023-05-13T06:25:41.567Z,21.24
2023-05-13T06:26:41.728Z,21.27
2023-05-13T06:27:41.897Z,21.27
2023-05-13T06:28:42.052Z,21.30
2023-05-13T06:29:42.109Z,21.29
2023-05-13T06:30:42.246Z,21.32
2023-05-13T06:31:42.458Z,21.32
2023-05-13T06:32:50.288Z,21.32
2023-05-13T06:33:43.602Z,21.34
2023-05-13T06:34:42.861Z,21.35
2023-05-13T06:35:42.998Z,21.36
2023-05-13T06:36:43.116Z,21.36
2023-05-13T06:37:43.230Z,21.38
2023-05-13T06:38:43.328Z,21.39
2023-05-13T06:39:43.596Z,21.39
2023-05-13T06:40:43.692Z,21.41
2023-05-13T06:41:43.765Z,21.42
2023-05-13T06:42:43.905Z,21.42
2023-05-13T06:43:44.048Z,21.44
2023-05-13T06:44:44.159Z,21.45
2023-05-13T06:45:44.267Z,21.46
2023-05-13T06:46:44.501Z,21.46
2023-05-13T06:47:44.594Z,21.48
2023-05-13T06:48:44.679Z,21.50
2023-05-13T06:49:44.804Z,21.51
2023-05-13T06:50:44.938Z,21.51
2023-05-13T06:51:45.080Z,21.53
2023-05-13T06:52:45.399Z,21.54
2023-05-13T06:53:45.368Z,21.54
2023-05-13T06:54:45.486Z,21.56
2023-05-13T06:55:45.598Z,21.56
2023-05-13T06:56:45.729Z,21.57
2023-05-13T06:57:45.824Z,21.57
2023-05-13T06:58:45.960Z,21.59
2023-05-13T06:59:46.132Z,21.59
2023-05-13T07:00:46.214Z,21.61
2023-05-13T07:01:46.354Z,21.61
2023-05-13T07:02:46.612Z,21.63
2023-05-13T07:03:46.723Z,21.64
2023-05-13T07:04:46.730Z,21.64
2023-05-13T07:05:46.828Z,21.64
2023-05-13T07:06:46.944Z,21.64
2023-05-13T07:07:47.059Z,21.66
2023-05-13T07:08:47.184Z,21.67
2023-05-13T07:09:47.272Z,21.71
2023-05-13T07:10:47.466Z,21.69
2023-05-13T07:11:47.555Z,21.71
2023-05-13T07:12:47.683Z,21.71
2023-05-13T07:16:04.448Z,21.75
2023-05-13T07:17:04.590Z,21.74
2023-05-13T07:18:04.709Z,21.74
2023-05-13T07:19:04.871Z,21.76
2023-05-13T07:20:04.985Z,21.76
2023-05-13T07:21:05.114Z,21.75
2023-05-13T07:22:05.229Z,21.76
2023-05-13T07:23:05.399Z,21.81
2023-05-13T07:24:05.509Z,21.79
2023-05-13T07:25:06.575Z,21.79
2023-05-13T07:26:05.752Z,21.81
2023-05-13T07:27:05.853Z,21.82
2023-05-13T07:28:05.976Z,21.81
2023-05-13T07:29:06.075Z,21.82
2023-05-13T07:30:06.254Z,21.82
2023-05-13T07:31:06.472Z,21.82
2023-05-13T07:32:06.533Z,21.85
2023-05-13T07:33:06.684Z,21.83
2023-05-13T07:34:07.715Z,21.83
2023-05-13T07:35:06.892Z,21.88
2023-05-13T07:36:07.061Z,21.90
2023-05-13T07:37:07.177Z,21.90
2023-05-13T07:38:07.290Z,21.91
2023-05-13T07:39:07.415Z,21.91
2023-05-13T07:40:07.534Z,21.92
2023-05-13T07:41:07.720Z,21.92
2023-05-13T07:42:07.802Z,21.92
2023-05-13T07:43:07.943Z,21.94
2023-05-13T07:44:08.048Z,21.94
2023-05-13T07:45:08.189Z,21.92
2023-05-13T07:46:08.298Z,21.95
2023-05-13T07:47:08.516Z,21.97
2023-05-13T07:48:08.537Z,21.97
2023-05-13T07:49:08.684Z,21.97
2023-05-13T07:50:08.776Z,21.98
2023-05-13T07:51:08.878Z,21.98
2023-05-13T07:52:09.028Z,22.01
2023-05-13T07:53:09.163Z,22.01
2023-05-13T07:54:09.302Z,22.01
2023-05-13T07:55:09.427Z,22.02
2023-05-13T07:56:09.553Z,22.02
2023-05-13T07:57:09.672Z,22.04
2023-05-13T07:58:09.824Z,22.06
2023-05-13T07:59:09.931Z,22.06
2023-05-13T08:00:10.089Z,22.06
2023-05-13T08:01:10.212Z,22.07
2023-05-13T08:02:10.321Z,22.07
2023-05-13T08:03:10.533Z,22.09
2023-05-13T08:04:10.876Z,22.12
2023-05-13T08:05:10.735Z,22.10
2023-05-13T08:06:11.710Z,22.12
2023-05-13T08:07:10.905Z,22.13
2023-05-13T08:08:11.017Z,22.14
2023-05-13T08:09:11.492Z,22.14
2023-05-13T08:10:11.256Z,22.14
2023-05-13T08:11:11.370Z,22.16
2023-05-13T08:12:11.473Z,22.17
2023-05-13T08:13:11.616Z,22.19
2023-05-13T08:14:11.727Z,22.17
2023-05-13T08:15:11.843Z,22.19
2023-05-13T08:16:12.211Z,22.22
2023-05-13T08:17:12.121Z,22.22
2023-05-13T08:18:12.303Z,22.23
2023-05-13T08:19:12.499Z,22.23
2023-05-13T08:20:12.584Z,22.25
2023-05-13T08:21:12.659Z,22.25
2023-05-13T08:22:12.775Z,22.27
2023-05-13T08:23:12.910Z,22.27
2023-05-13T08:24:13.089Z,22.28
2023-05-13T08:25:13.236Z,22.28
2023-05-13T08:26:13.384Z,22.31
2023-05-13T08:27:13.500Z,22.32
2023-05-13T08:28:13.606Z,22.32
2023-05-13T08:29:13.738Z,22.32
2023-05-13T08:30:13.896Z,22.32
2023-05-13T08:31:14.052Z,22.34
2023-05-13T08:32:14.197Z,22.34
2023-05-13T08:33:14.278Z,22.35
2023-05-13T08:34:14.384Z,22.35
2023-05-13T08:35:14.531Z,22.38
2023-05-13T08:36:14.652Z,22.37
2023-05-13T08:37:14.835Z,22.38
2023-05-13T08:38:14.922Z,22.41
2023-05-13T08:39:15.043Z,22.41
2023-05-13T08:40:15.201Z,22.41
2023-05-13T08:41:16.238Z,22.43
2023-05-13T08:42:15.431Z,22.43
2023-05-13T08:43:15.563Z,22.43
2023-05-13T08:44:15.676Z,22.44
2023-05-13T08:45:15.788Z,22.44
2023-05-13T08:46:15.964Z,22.47
2023-05-13T08:47:16.007Z,22.47
2023-05-13T08:48:16.177Z,22.47
2023-05-13T08:49:16.291Z,22.50
2023-05-13T08:50:16.406Z,22.52
2023-05-13T08:51:16.520Z,22.50
2023-05-13T08:52:16.713Z,22.52
2023-05-13T08:53:16.897Z,22.52
2023-05-13T08:54:17.006Z,22.54
2023-05-13T08:55:17.102Z,22.54
2023-05-13T08:56:17.227Z,22.56
2023-05-13T08:57:17.341Z,22.57
2023-05-13T08:58:17.460Z,22.57
2023-05-13T08:59:17.586Z,22.59
2023-05-13T09:00:19.377Z,22.60
2023-05-13T09:01:17.901Z,22.60
2023-05-13T09:02:17.975Z,22.62
2023-05-13T09:03:18.145Z,22.64
2023-05-13T09:04:18.246Z,22.65
2023-05-13T09:05:18.464Z,22.65
2023-05-13T09:06:18.688Z,22.68
2023-05-13T09:07:18.875Z,22.69
2023-05-13T09:08:19.079Z,22.69
2023-05-13T09:09:18.960Z,22.71
2023-05-13T09:10:19.197Z,22.72
2023-05-13T09:11:19.236Z,22.72
2023-05-13T09:12:19.373Z,22.75
2023-05-13T09:13:19.520Z,22.75
2023-05-13T09:14:19.934Z,22.75
2023-05-13T09:15:19.927Z,22.80
2023-05-13T09:16:19.928Z,22.80
2023-05-13T09:17:20.041Z,22.83
2023-05-13T09:18:20.302Z,22.83
2023-05-13T09:19:20.356Z,22.84
2023-05-13T09:20:20.490Z,22.86
2023-05-13T09:21:20.536Z,22.87
2023-05-13T09:22:20.644Z,22.89
2023-05-13T09:23:21.769Z,22.90
2023-05-13T09:24:20.961Z,22.90
2023-05-13T09:25:21.322Z,22.92
2023-05-13T09:26:21.216Z,22.93
2023-05-13T09:27:21.323Z,22.94
2023-05-13T09:28:21.432Z,22.96
2023-05-13T09:29:21.569Z,22.96
2023-05-13T09:30:21.690Z,22.97
2023-05-13T09:31:21.848Z,23.01
2023-05-13T09:32:21.939Z,23.01
2023-05-13T09:33:22.069Z,23.02
2023-05-13T09:34:22.177Z,23.02
2023-05-13T09:35:22.493Z,23.05
2023-05-13T09:36:22.420Z,23.05
2023-05-13T09:37:22.523Z,23.08
2023-05-13T09:38:22.648Z,23.07
2023-05-13T09:39:22.751Z,23.08
2023-05-13T09:40:23.162Z,23.09
2023-05-13T09:41:23.033Z,23.11
2023-05-13T09:42:23.153Z,23.11
2023-05-13T09:43:23.297Z,23.14
2023-05-13T09:44:23.380Z,23.12
2023-05-13T09:45:23.809Z,23.14
2023-05-13T09:46:23.645Z,23.17
2023-05-13T09:47:23.700Z,23.17
2023-05-13T09:48:23.896Z,23.19
2023-05-13T09:49:24.068Z,23.20
2023-05-13T09:50:24.461Z,23.20
2023-05-13T09:51:24.259Z,23.22
2023-05-13T09:52:24.390Z,23.23
2023-05-13T09:53:24.541Z,23.26
2023-05-13T09:54:24.648Z,23.26
2023-05-13T09:55:24.779Z,23.27
2023-05-13T09:56:24.920Z,23.29
2023-05-13T09:57:25.037Z,23.29
2023-05-13T09:58:26.173Z,23.29
2023-05-13T09:59:25.366Z,23.32
2023-05-13T10:00:32.736Z,23.32
2023-05-13T10:01:26.680Z,23.34
2023-05-13T10:02:25.761Z,23.35
2023-05-13T10:13:36.968Z,23.26
2023-05-13T10:14:37.095Z,23.26
2023-05-13T10:15:37.202Z,23.26
2023-05-13T10:16:37.430Z,23.29
2023-05-13T10:17:37.590Z,23.29
2023-05-13T10:18:37.654Z,23.32
2023-05-13T10:19:37.746Z,23.35
2023-05-13T10:20:37.866Z,23.40
2023-05-13T10:21:37.996Z,23.42
2023-05-13T10:22:38.149Z,23.46
2023-05-13T10:23:38.311Z,23.47
2023-05-13T10:24:39.030Z,23.50
2023-05-13T10:25:38.576Z,23.53
2023-05-13T10:26:38.708Z,23.57
2023-05-13T10:27:38.834Z,23.60
2023-05-13T10:28:38.975Z,23.60
2023-05-13T10:29:39.170Z,23.64
2023-05-13T10:30:39.245Z,23.65
2023-05-13T10:31:39.447Z,23.68
2023-05-13T10:32:39.562Z,23.71
2023-05-13T10:33:39.704Z,23.72
2023-05-13T10:34:39.875Z,23.76
2023-05-13T10:35:42.119Z,23.77
2023-05-13T10:36:40.076Z,23.80
2023-05-13T10:37:40.238Z,23.82
2023-05-13T10:38:40.389Z,23.83
2023-05-13T10:39:40.460Z,23.86
2023-05-13T10:40:40.622Z,23.87
2023-05-13T10:41:40.796Z,23.89
2023-05-13T10:42:40.954Z,23.90
2023-05-13T10:43:41.050Z,23.94
2023-05-13T10:44:41.218Z,23.95
2023-05-13T10:45:41.330Z,23.98
2023-05-13T10:46:41.488Z,24.00
2023-05-13T10:47:41.748Z,24.01
2023-05-13T10:48:41.918Z,24.02
2023-05-13T10:49:41.897Z,24.05
2023-05-13T10:50:42.057Z,24.05
2023-05-13T10:51:42.905Z,24.07
2023-05-13T10:52:42.284Z,24.10
2023-05-13T10:53:42.402Z,24.13
2023-05-13T10:54:42.548Z,24.16
2023-05-13T10:55:42.695Z,24.14
2023-05-13T10:56:42.824Z,24.16
2023-05-13T10:57:42.915Z,24.22
2023-05-13T10:58:43.055Z,24.20
2023-05-13T10:59:43.211Z,24.23
2023-05-13T11:00:43.306Z,24.26
2023-05-13T11:01:44.015Z,24.26
2023-05-13T11:02:43.613Z,24.29
2023-05-13T11:03:43.836Z,24.31
2023-05-13T11:04:43.811Z,24.32
2023-05-13T11:05:43.946Z,24.32
2023-05-13T11:06:44.078Z,24.34
2023-05-13T11:07:44.194Z,24.38
2023-05-13T11:08:44.300Z,24.39
2023-05-13T11:09:44.485Z,24.38
2023-05-13T11:10:44.600Z,24.44
2023-05-13T11:11:44.738Z,24.42
2023-05-13T11:12:44.932Z,24.45
2023-05-13T11:13:45.033Z,24.47
2023-05-13T11:14:45.164Z,24.47
2023-05-13T11:15:45.352Z,24.47
2023-05-13T11:16:45.459Z,24.49
2023-05-13T11:17:45.566Z,24.52
2023-05-13T11:18:45.694Z,24.53
2023-05-13T11:19:45.805Z,24.53
2023-05-13T11:20:52.786Z,24.59
2023-05-13T11:21:47.117Z,24.57
2023-05-13T11:22:46.274Z,24.57
2023-05-13T11:23:46.419Z,24.60
2023-05-13T11:24:46.537Z,24.61
2023-05-13T11:25:46.694Z,24.63
2023-05-13T11:26:46.804Z,24.64
2023-05-13T11:27:46.967Z,24.67
2023-05-13T11:28:47.032Z,24.68
2023-05-13T11:29:47.142Z,24.68
2023-05-13T11:30:47.247Z,24.69
2023-05-13T11:31:47.470Z,24.73
2023-05-13T11:32:47.634Z,24.73
2023-05-13T11:33:47.822Z,24.71
2023-05-13T11:34:47.830Z,24.71
2023-05-13T11:35:47.998Z,24.69
2023-05-13T11:36:48.178Z,24.71
2023-05-13T11:37:48.303Z,24.73
2023-05-13T11:38:48.427Z,24.73
2023-05-13T11:39:48.599Z,24.75
2023-05-13T11:40:48.744Z,24.76
2023-05-13T11:41:48.893Z,24.80
2023-05-13T11:42:49.060Z,24.82
2023-05-13T11:43:49.174Z,24.80
2023-05-13T11:44:49.273Z,24.80
2023-05-13T11:45:49.468Z,24.80
2023-05-13T11:46:49.597Z,24.82
2023-05-13T11:47:49.792Z,24.83
2023-05-13T11:48:49.884Z,24.87
2023-05-13T11:49:50.030Z,24.88
2023-05-13T11:50:50.124Z,24.91
2023-05-13T11:51:50.341Z,24.91
2023-05-13T11:52:50.468Z,24.95
2023-05-13T11:53:50.564Z,24.94
2023-05-13T11:54:50.686Z,24.95
2023-05-13T11:55:51.844Z,24.98
2023-05-13T11:56:50.944Z,25.00
2023-05-13T11:57:51.100Z,25.00
2023-05-13T11:58:51.222Z,25.00
2023-05-13T11:59:51.402Z,25.00
2023-05-13T12:00:51.490Z,25.01
2023-05-13T12:03:06.927Z,-39.95
2023-05-13T12:04:06.850Z,-39.95
2023-05-13T12:05:07.897Z,-39.95
2023-05-13T12:06:06.839Z,-39.95
2023-05-13T12:07:06.841Z,-39.95
2023-05-13T12:08:06.852Z,-39.95
2023-05-13T12:09:06.877Z,-39.95
2023-05-13T12:10:06.896Z,-39.95
2023-05-13T12:11:06.934Z,-39.95
2023-05-13T12:12:06.860Z,-39.95
2023-05-13T12:13:06.877Z,-39.95
2023-05-13T12:14:06.870Z,-39.95
2023-05-13T12:15:07.827Z,-39.95
2023-05-13T12:16:06.947Z,-39.95
2023-05-13T12:17:06.918Z,-39.95
2023-05-13T12:18:06.971Z,-39.95
2023-05-13T12:19:06.935Z,-39.95
2023-05-13T12:20:06.916Z,-39.95
2023-05-13T12:21:06.927Z,-39.95
2023-05-13T12:22:06.927Z,-39.95
2023-05-13T12:23:06.934Z,-39.95
2023-05-13T12:24:06.940Z,-39.95
2023-05-13T12:25:06.956Z,-39.95
2023-05-13T12:26:06.952Z,-39.95
2023-05-13T12:27:08.621Z,-39.95
2023-05-13T12:28:06.982Z,-39.95
2023-05-13T12:29:06.979Z,-39.95
2023-05-13T12:30:06.997Z,-39.95
2023-05-13T12:31:06.996Z,-39.95
2023-05-13T12:32:06.987Z,-39.95
2023-05-13T12:33:07.055Z,-39.95
2023-05-13T12:34:06.996Z,-39.95
2023-05-13T12:35:07.012Z,-39.95
2023-05-13T12:36:07.022Z,-39.95
2023-05-13T12:37:07.064Z,-39.95
2023-05-13T12:38:07.034Z,-39.95
2023-05-13T12:39:07.060Z,-39.95
2023-05-13T12:40:07.045Z,-39.95
2023-05-13T12:41:07.060Z,-39.95
2023-05-13T12:42:07.063Z,-39.95
2023-05-13T12:43:07.072Z,-39.95
2023-05-13T12:44:07.045Z,-39.95
2023-05-13T12:45:07.086Z,-39.95
2023-05-13T12:46:07.145Z,-39.95
2023-05-13T12:47:07.195Z,-39.95
2023-05-13T12:48:07.187Z,-39.95
2023-05-13T12:49:07.088Z,-39.95
2023-05-13T12:50:07.079Z,-39.95
2023-05-13T12:51:07.099Z,-39.95
2023-05-13T12:52:07.101Z,-39.95
2023-05-13T12:53:07.123Z,-39.95
2023-05-13T12:54:07.143Z,-39.95
2023-05-13T12:55:07.128Z,-39.95
2023-05-13T12:56:07.122Z,-39.95
2023-05-13T12:57:07.128Z,-39.95
2023-05-13T12:58:07.182Z,-39.95
2023-05-13T12:59:07.140Z,-39.95
2023-05-13T13:00:07.159Z,-39.95
2023-05-13T13:01:07.192Z,-39.95
2023-05-13T13:02:07.169Z,-39.95
2023-05-13T13:03:07.263Z,-39.95
2023-05-13T13:04:07.267Z,-39.95
2023-05-13T13:05:07.210Z,-39.95
2023-05-13T13:06:07.206Z,-39.95
2023-05-13T13:07:07.238Z,-39.95
2023-05-13T13:08:07.246Z,-39.95
2023-05-13T13:09:07.257Z,-39.95
2023-05-13T13:10:07.226Z,-39.95
2023-05-13T13:11:07.223Z,-39.95
2023-05-13T13:12:07.224Z,-39.95
2023-05-13T13:13:08.224Z,-39.95
2023-05-13T13:14:07.283Z,-39.95
2023-05-13T13:15:07.243Z,-39.95
2023-05-13T13:16:07.268Z,-39.95
2023-05-13T13:17:07.260Z,-39.95
2023-05-13T13:18:07.340Z,-39.95
2023-05-13T13:19:07.316Z,-39.95
2023-05-13T13:20:07.741Z,-39.95
2023-05-13T13:21:07.338Z,-39.95
2023-05-13T13:22:07.299Z,-39.95
2023-05-13T13:23:07.339Z,-39.95
2023-05-13T13:24:07.332Z,-39.95
2023-05-13T13:25:07.346Z,-39.95
2023-05-13T13:26:07.320Z,-39.95
2023-05-13T13:27:07.328Z,-39.95
2023-05-13T13:28:07.330Z,-39.95
2023-05-13T13:29:07.334Z,-39.95
2023-05-13T13:30:07.346Z,-39.95
2023-05-13T13:31:07.329Z,-39.95
2023-05-13T13:32:07.395Z,-39.95
2023-05-13T13:33:07.453Z,-39.95
2023-05-13T13:34:07.372Z,-39.95
2023-05-13T13:35:08.341Z,-39.95
2023-05-13T13:36:07.383Z,-39.95
2023-05-13T13:37:07.389Z,-39.95
2023-05-13T13:38:07.422Z,-39.95
2023-05-13T13:39:07.402Z,-39.95
2023-05-13T13:40:07.453Z,-39.95
2023-05-13T13:41:07.408Z,-39.95
2023-05-13T13:42:07.430Z,-39.95
2023-05-13T13:43:07.426Z,-39.95
2023-05-13T13:44:07.437Z,-39.95
2023-05-13T13:45:07.437Z,-39.95
2023-05-13T13:46:07.543Z,-39.95
2023-05-13T13:47:07.455Z,-39.95
2023-05-13T13:48:07.485Z,-39.95
2023-05-13T13:49:22.792Z,-39.95
2023-05-13T13:50:08.488Z,-39.95
2023-05-13T13:51:07.478Z,-39.95
2023-05-13T13:52:07.476Z,-39.95
2023-05-13T13:53:07.518Z,-39.95
2023-05-13T13:54:07.500Z,-39.95
2023-05-13T13:55:07.514Z,-39.95
2023-05-13T13:56:07.500Z,-39.95
2023-05-13T13:57:07.523Z,-39.95
2023-05-13T13:58:07.523Z,-39.95
2023-05-13T13:59:07.541Z,-39.95
2023-05-13T14:00:07.541Z,-39.95
2023-05-13T14:01:07.559Z,-39.95
2023-05-13T14:02:07.558Z,-39.95
2023-05-13T14:03:07.633Z,-39.95
2023-05-13T14:04:07.620Z,-39.95
2023-05-13T14:05:07.570Z,-39.95
2023-05-13T14:06:07.558Z,-39.95
2023-05-13T14:07:07.560Z,-39.95
2023-05-13T14:08:07.569Z,-39.95
2023-05-13T14:09:07.596Z,-39.95
2023-05-13T14:10:07.638Z,-39.95
2023-05-13T14:11:07.578Z,-39.95
2023-05-13T14:12:07.618Z,-39.95
2023-05-13T14:13:07.595Z,-39.95
2023-05-13T14:14:07.635Z,-39.95
2023-05-13T14:15:07.667Z,-39.95
2023-05-13T14:16:07.659Z,-39.95
2023-05-13T14:17:07.681Z,-39.95
2023-05-13T14:18:07.736Z,-39.95
2023-05-13T14:19:07.816Z,-39.95
2023-05-13T14:20:07.673Z,-39.95
2023-05-13T14:21:07.679Z,-39.95
2023-05-13T14:22:07.664Z,-39.95
2023-05-13T14:23:07.692Z,-39.95
2023-05-13T14:24:07.670Z,-39.95
2023-05-13T14:25:07.687Z,-39.95
2023-05-13T14:26:07.689Z,-39.95
2023-05-13T14:27:07.705Z,-39.95
2023-05-13T14:28:07.715Z,-39.95
2023-05-13T14:29:07.718Z,-39.95
2023-05-13T14:30:07.718Z,-39.95
2023-05-13T14:31:07.745Z,-39.95
2023-05-13T14:32:07.790Z,-39.95
2023-05-13T14:33:07.825Z,-39.95
2023-05-13T14:35:23.248Z,27.71
2023-05-13T14:36:23.342Z,27.58
2023-05-13T14:37:23.507Z,27.47
2023-05-13T14:38:24.590Z,27.32
2023-05-13T14:39:23.773Z,27.19
2023-05-13T14:40:24.897Z,27.02
2023-05-13T14:41:24.012Z,26.86
2023-05-13T14:42:24.188Z,26.73
2023-05-13T14:43:24.231Z,26.62
2023-05-13T14:44:24.389Z,26.55
2023-05-13T14:45:24.551Z,26.46
2023-05-13T14:46:24.728Z,26.42
2023-05-13T14:47:24.810Z,26.35
2023-05-13T14:48:24.912Z,26.28
2023-05-13T14:49:25.013Z,26.25
2023-05-13T14:50:25.220Z,26.21
2023-05-13T14:51:25.981Z,26.18
2023-05-13T14:52:25.459Z,26.12
2023-05-13T14:53:25.542Z,26.11
2023-05-13T14:54:25.679Z,26.06
2023-05-13T14:55:25.848Z,26.04
2023-05-13T14:56:25.965Z,26.02
2023-05-13T14:57:26.055Z,25.99
2023-05-13T14:58:26.144Z,25.98
2023-05-13T14:59:27.204Z,25.97
2023-05-13T15:00:26.393Z,25.97
2023-05-13T15:01:26.604Z,25.91
2023-05-13T15:02:26.798Z,25.90
2023-05-13T15:03:26.857Z,25.89
2023-05-13T15:04:26.953Z,25.86
2023-05-13T15:05:27.083Z,25.86
2023-05-13T15:06:27.192Z,25.86
2023-05-13T15:07:27.279Z,25.84
2023-05-13T15:08:27.467Z,25.83
2023-05-13T15:09:27.595Z,25.82
2023-05-13T15:10:28.696Z,25.80
2023-05-13T15:11:27.897Z,25.80
2023-05-13T15:12:28.022Z,25.80
2023-05-13T15:13:28.133Z,25.77
2023-05-13T15:14:28.310Z,25.77
2023-05-13T15:15:28.394Z,25.75
2023-05-13T15:16:28.541Z,25.75
2023-05-13T15:17:28.688Z,25.74
2023-05-13T15:18:28.838Z,25.72
2023-05-13T15:19:28.983Z,25.71
2023-05-13T15:20:29.113Z,25.69
2023-05-13T15:21:29.241Z,25.71
2023-05-13T15:22:29.379Z,25.68
2023-05-13T15:23:29.500Z,25.69
2023-05-13T15:24:29.617Z,25.68
2023-05-13T15:25:29.724Z,25.67
2023-05-13T15:26:29.892Z,25.64
2023-05-13T15:27:29.994Z,25.64
2023-05-13T15:28:30.111Z,25.62
2023-05-13T15:29:30.259Z,25.61
2023-05-13T15:30:30.399Z,25.62
2023-05-13T15:31:30.582Z,25.61
2023-05-13T15:32:30.712Z,25.61
2023-05-13T15:33:30.785Z,25.61
2023-05-13T15:34:30.954Z,25.59
2023-05-13T15:35:31.033Z,25.57
2023-05-13T15:36:31.152Z,25.56
2023-05-13T15:37:31.331Z,25.53
2023-05-13T15:38:31.402Z,25.50
2023-05-13T15:39:32.230Z,25.49
2023-05-13T15:40:31.649Z,25.47
2023-05-13T15:41:31.771Z,25.46
2023-05-13T15:42:31.942Z,25.43
2023-05-13T15:43:32.052Z,25.42
2023-05-13T15:44:32.196Z,25.38
2023-05-13T15:45:32.301Z,25.38
2023-05-13T15:46:32.567Z,25.37
2023-05-13T15:47:32.620Z,25.35
2023-05-13T15:48:32.786Z,25.35
2023-05-13T15:49:32.807Z,25.32
2023-05-13T15:50:32.986Z,25.30
2023-05-13T15:51:33.193Z,25.30
2023-05-13T15:52:33.337Z,25.30
2023-05-13T15:53:33.438Z,25.27
2023-05-13T15:54:33.553Z,25.27
2023-05-13T15:55:33.708Z,25.24
2023-05-13T15:56:33.804Z,25.24
2023-05-13T15:57:33.914Z,25.22
2023-05-13T15:58:34.029Z,25.24
2023-05-13T15:59:34.153Z,25.22
2023-05-13T16:00:34.296Z,25.19
2023-05-13T16:12:45.737Z,24.90
2023-05-13T16:13:45.806Z,24.88
2023-05-13T16:14:45.943Z,24.87
2023-05-13T16:15:46.055Z,24.87
2023-05-13T16:16:47.197Z,24.87
2023-05-13T16:17:46.376Z,24.85
2023-05-13T16:18:46.560Z,24.88
2023-05-13T16:19:46.636Z,24.88
2023-05-13T16:20:46.811Z,24.88
2023-05-13T16:21:46.958Z,24.90
2023-05-13T16:22:47.057Z,24.88
2023-05-13T16:23:47.171Z,24.90
2023-05-13T16:24:47.316Z,24.90
2023-05-13T16:25:47.457Z,24.90
2023-05-13T16:26:47.602Z,24.91
2023-05-13T16:27:47.718Z,24.91
2023-05-13T16:28:47.809Z,24.91
2023-05-13T16:29:48.019Z,24.91
2023-05-13T16:30:48.136Z,24.90
2023-05-13T16:31:48.304Z,24.90
2023-05-13T16:32:48.454Z,24.91
2023-05-13T16:33:48.523Z,24.88
2023-05-13T16:34:48.702Z,24.90
2023-05-13T16:35:48.810Z,24.88
2023-05-13T16:36:48.980Z,24.88
2023-05-13T16:37:49.140Z,24.87
2023-05-13T16:38:49.240Z,24.88
2023-05-13T16:39:49.380Z,24.88
2023-05-13T16:40:49.527Z,24.85
2023-05-13T16:41:49.658Z,24.87
2023-05-13T16:42:49.795Z,24.85
2023-05-13T16:43:49.918Z,24.85
2023-05-13T16:44:50.016Z,24.87
2023-05-13T16:45:50.136Z,24.85
2023-05-13T16:46:50.282Z,24.85
2023-05-13T16:47:50.467Z,24.85
2023-05-13T16:48:50.527Z,24.85
2023-05-13T16:49:50.700Z,24.87
2023-05-13T16:50:50.819Z,24.85
2023-05-13T16:51:50.974Z,24.85
2023-05-13T16:52:51.087Z,24.85
2023-05-13T16:53:51.194Z,24.83
2023-05-13T16:54:51.323Z,24.82
2023-05-13T16:55:51.443Z,24.82
2023-05-13T16:56:51.589Z,24.82
2023-05-13T16:57:51.685Z,24.80
2023-05-13T16:58:51.886Z,24.79
2023-05-13T16:59:52.035Z,24.79
2023-05-13T17:00:52.199Z,24.77
2023-05-13T17:01:52.313Z,24.76
2023-05-13T17:02:52.645Z,24.76
2023-05-13T17:03:52.599Z,24.76
2023-05-13T17:04:52.764Z,24.73
2023-05-13T17:05:52.812Z,24.73
2023-05-13T17:06:53.008Z,24.73
2023-05-13T17:07:53.169Z,24.73
2023-05-13T17:08:53.290Z,24.71
2023-05-13T17:09:53.394Z,24.71
2023-05-13T17:10:53.520Z,24.73
2023-05-13T17:11:53.618Z,24.71
2023-05-13T17:12:53.725Z,24.71
2023-05-13T17:13:53.840Z,24.69
2023-05-13T17:14:53.994Z,24.69